Time;durP1;ratioP1;P1;durP2;ratioP2;P2;SDS_P1;SDS_P2;PMS_P1;PMS_P2;Temp;Humidity;BMP_temperature;BMP_pressure;BME280_temperature;BME280_humidity;BME280_pressure;Samples;Min_cycle;Max_cycle;Signal;HPM_P1;HPM_P2
2024/03/29 00:00:16;;;;;;;;;;;;;;;;;;1045629;28;19912;-74
2024/03/29 00:00:47;;;;;;;;;;;;;;;;;;1045915;28;19908;-74
2024/03/29 00:01:17;;;;;;;;;;;;;;;;;;1046154;28;20053;-74
2024/03/29 00:01:47;;;;;;;;;;;;;;;;;;1046071;28;20004;-74
2024/03/29 00:02:17;;;;;;;;;;;;;;;;;;1046080;28;19919;-74
2024/03/29 00:02:48;;;;;;;;;;;;;;;;;;1044894;28;19927;-74
2024/03/29 00:03:18;;;;;;;;;;;;;;;;;;1046747;28;19912;-74
2024/03/29 00:03:48;;;;;;;;;;;;;;;;;;1044837;28;19915;-74
2024/03/29 00:04:18;;;;;;;;;;;;;;;;;;1046232;28;19909;-74
2024/03/29 00:04:48;;;;;;;;;;;;;;;;;;1045958;28;19908;-74
2024/03/29 00:05:19;;;;;;;;;;;;;;;;;;1046081;28;19943;-74
2024/03/29 00:05:49;;;;;;;;;;;;;;;;;;1046001;28;19961;-74
2024/03/29 00:06:19;;;;;;;;;;;;;;;;;;1045405;28;19914;-74
2024/03/29 00:06:49;;;;;;;;;;;;;;;;;;1041758;28;19909;-74
2024/03/29 00:07:19;;;;;;;;;;;;;;;;;;1041971;28;19913;-74
2024/03/29 00:07:50;;;;;;;;;;;;;;;;;;1042270;28;19916;-74
2024/03/29 00:08:20;;;;;;;;;;;;;;;;;;1042565;28;19909;-74
2024/03/29 00:08:50;;;;;;;;;;;;;;;;;;1042832;28;19915;-74
2024/03/29 00:09:20;;;;;;;;;;;;;;;;;;1041875;28;19944;-74
2024/03/29 00:09:50;;;;;;;;;;;;;;;;;;1042057;28;19913;-74
2024/03/29 00:10:21;;;;;;;;;;;;;;;;;;1046490;28;19908;-74
2024/03/29 00:10:51;;;;;;;;;;;;;;;;;;1042517;28;19916;-74
2024/03/29 00:11:22;;;;;;;;;;;;;;;;;;1042354;28;19913;-74
2024/03/29 00:11:52;;;;;;;;;;;;;;;;;;1042854;28;19908;-74
2024/03/29 00:12:22;;;;;;;;;;;;;;;;;;1042274;28;19916;-74
2024/03/29 00:12:52;;;;;;;;;;;;;;;;;;1038282;28;19916;-74
2024/03/29 00:13:22;;;;;;;;;;;;;;;;;;1038567;28;19945;-74
2024/03/29 00:13:53;;;;;;;;;;;;;;;;;;1038830;28;19913;-74
2024/03/29 00:14:23;;;;;;;;;;;;;;;;;;1041722;28;19915;-74
2024/03/29 00:14:55;;;;;;;;;;;;;;;;;;1047330;28;19909;-74
2024/03/29 00:15:25;;;;;;;;;;;;;;;;;;1042595;28;19909;-74
2024/03/29 00:15:56;;;;;;;;;;;;;;;;;;1040349;28;19932;-74
2024/03/29 00:16:26;;;;;;;;;;;;;;;;;;1042580;28;20355;-74
2024/03/29 00:16:56;;;;;;;;;;;;;;;;;;1041499;28;19921;-74
2024/03/29 00:17:27;;;;;;;;;;;;;;;;;;1046770;28;19962;-74
2024/03/29 00:17:57;;;;;;;;;;;;;;;;;;1042762;28;19909;-74
2024/03/29 00:18:27;;;;;;;;;;;;;;;;;;1042733;28;19974;-74
2024/03/29 00:18:57;;;;;;;;;;;;;;;;;;1042838;28;19913;-74
2024/03/29 00:19:27;;;;;;;;;;;;;;;;;;1042225;28;19935;-74
2024/03/29 00:19:58;;;;;;;;;;;;;;;;;;1042440;28;20371;-74
2024/03/29 00:20:29;;;;;;;;;;;;;;;;;;1036905;28;19915;-74
2024/03/29 00:20:59;;;;;;;;;;;;;;;;;;1037984;28;19909;-74
2024/03/29 00:21:29;;;;;;;;;;;;;;;;;;1038161;28;19932;-74
2024/03/29 00:21:59;;;;;;;;;;;;;;;;;;1038649;28;20012;-74
2024/03/29 00:22:29;;;;;;;;;;;;;;;;;;1042618;28;20286;-74
2024/03/29 00:23:00;;;;;;;;;;;;;;;;;;1042471;28;19908;-74
2024/03/29 00:23:30;;;;;;;;;;;;;;;;;;1042343;28;20050;-74
2024/03/29 00:24:00;;;;;;;;;;;;;;;;;;1042396;28;19913;-74
2024/03/29 00:24:30;;;;;;;;;;;;;;;;;;1041736;28;19909;-74
2024/03/29 00:25:01;;;;;;;;;;;;;;;;;;1041163;28;19919;-74
2024/03/29 00:25:31;;;;;;;;;;;;;;;;;;1043211;28;20036;-74
2024/03/29 00:26:01;;;;;;;;;;;;;;;;;;1042836;28;19908;-74
2024/03/29 00:26:31;;;;;;;;;;;;;;;;;;1042166;28;19909;-74
2024/03/29 00:27:02;;;;;;;;;;;;;;;;;;1046636;28;19955;-74
2024/03/29 00:27:33;;;;;;;;;;;;;;;;;;1042209;28;19909;-74
2024/03/29 00:28:03;;;;;;;;;;;;;;;;;;1042563;28;19909;-74
2024/03/29 00:28:33;;;;;;;;;;;;;;;;;;1042653;28;19909;-74
2024/03/29 00:29:04;;;;;;;;;;;;;;;;;;1042367;28;19909;-74
2024/03/29 00:29:34;;;;;;;;;;;;;;;;;;1041013;28;20004;-74
2024/03/29 00:30:04;;;;;;;;;;;;;;;;;;1042775;28;19916;-74
2024/03/29 00:30:34;;;;;;;;;;;;;;;;;;1041261;28;19908;-74
2024/03/29 00:31:05;;;;;;;;;;;;;;;;;;1042267;28;20349;-74
2024/03/29 00:31:35;;;;;;;;;;;;;;;;;;1041936;28;20277;-74
2024/03/29 00:32:05;;;;;;;;;;;;;;;;;;1042317;28;20007;-74
2024/03/29 00:32:35;;;;;;;;;;;;;;;;;;1038067;28;20316;-74
2024/03/29 00:33:06;;;;;;;;;;;;;;;;;;1042679;28;19975;-74
2024/03/29 00:33:36;;;;;;;;;;;;;;;;;;1042666;28;19913;-74
2024/03/29 00:34:06;;;;;;;;;;;;;;;;;;1038805;28;19908;-74
2024/03/29 00:34:36;;;;;;;;;;;;;;;;;;1042076;28;20005;-74
2024/03/29 00:35:06;;;;;;;;;;;;;;;;;;1041994;28;19909;-74
2024/03/29 00:35:37;;;;;;;;;;;;;;;;;;1042251;28;20297;-74
2024/03/29 00:36:07;;;;;;;;;;;;;;;;;;1041979;28;20308;-74
2024/03/29 00:36:37;;;;;;;;;;;;;;;;;;1046731;28;20406;-74
2024/03/29 00:37:07;;;;;;;;;;;;;;;;;;1047072;28;20446;-74
2024/03/29 00:37:37;;;;;;;;;;;;;;;;;;1046646;28;19912;-74
2024/03/29 00:38:08;;;;;;;;;;;;;;;;;;1046805;28;19935;-74
2024/03/29 00:38:38;;;;;;;;;;;;;;;;;;1047124;28;19952;-74
2024/03/29 00:39:11;;;;;;;;;;;;;;;;;;1047225;28;19958;-74
2024/03/29 00:39:41;;;;;;;;;;;;;;;;;;1047142;28;20372;-74
2024/03/29 00:40:12;;;;;;;;;;;;;;;;;;1042555;28;19920;-74
2024/03/29 00:40:42;;;;;;;;;;;;;;;;;;1042162;28;19914;-74
2024/03/29 00:41:12;;;;;;;;;;;;;;;;;;1042843;28;19908;-74
2024/03/29 00:41:42;;;;;;;;;;;;;;;;;;1042452;28;19916;-74
2024/03/29 00:42:15;;;;;;;;;;;;;;;;;;1042701;28;19909;-74
2024/03/29 00:42:45;;;;;;;;;;;;;;;;;;1047289;28;19983;-74
2024/03/29 00:43:16;;;;;;;;;;;;;;;;;;1046983;28;19915;-74
2024/03/29 00:43:46;;;;;;;;;;;;;;;;;;1046726;28;19915;-74
2024/03/29 00:44:16;;;;;;;;;;;;;;;;;;1042063;28;19916;-74
2024/03/29 00:44:46;;;;;;;;;;;;;;;;;;1042426;28;19909;-74
2024/03/29 00:45:17;;;;;;;;;;;;;;;;;;1042513;28;20426;-74
2024/03/29 00:45:47;;;;;;;;;;;;;;;;;;1042655;28;19909;-74
2024/03/29 00:46:18;;;;;;;;;;;;;;;;;;1042416;28;20518;-74
2024/03/29 00:46:48;;;;;;;;;;;;;;;;;;1040719;28;19966;-75
2024/03/29 00:47:18;;;;;;;;;;;;;;;;;;1046528;28;19962;-75
2024/03/29 00:47:49;;;;;;;;;;;;;;;;;;1045745;28;19908;-74
2024/03/29 00:48:20;;;;;;;;;;;;;;;;;;1046324;28;19912;-74
2024/03/29 00:48:50;;;;;;;;;;;;;;;;;;1046504;28;19909;-74
2024/03/29 00:49:20;;;;;;;;;;;;;;;;;;1047058;28;19909;-74
2024/03/29 00:49:50;;;;;;;;;;;;;;;;;;1047042;28;19908;-74
2024/03/29 00:50:21;;;;;;;;;;;;;;;;;;1046807;28;19908;-75
2024/03/29 00:50:51;;;;;;;;;;;;;;;;;;1042232;28;19943;-74
2024/03/29 00:51:21;;;;;;;;;;;;;;;;;;1041539;28;19965;-74
2024/03/29 00:51:51;;;;;;;;;;;;;;;;;;1042712;28;19908;-74
2024/03/29 00:52:21;;;;;;;;;;;;;;;;;;1042055;28;19908;-74
2024/03/29 00:52:52;;;;;;;;;;;;;;;;;;1045873;28;19908;-74
2024/03/29 00:53:22;;;;;;;;;;;;;;;;;;1046800;28;19909;-75
2024/03/29 00:53:54;;;;;;;;;;;;;;;;;;1047086;28;19940;-74
2024/03/29 00:54:24;;;;;;;;;;;;;;;;;;1045997;28;19909;-75
2024/03/29 00:54:54;;;;;;;;;;;;;;;;;;1047100;28;20358;-74
2024/03/29 00:55:24;;;;;;;;;;;;;;;;;;1045645;28;20276;-74
2024/03/29 00:55:55;;;;;;;;;;;;;;;;;;1046793;28;20386;-74
2024/03/29 00:56:25;;;;;;;;;;;;;;;;;;1046964;28;19909;-74
2024/03/29 00:56:55;;;;;;;;;;;;;;;;;;1047304;28;19966;-74
2024/03/29 00:57:25;;;;;;;;;;;;;;;;;;1042360;28;19909;-74
2024/03/29 00:57:55;;;;;;;;;;;;;;;;;;1041437;28;19908;-74
2024/03/29 00:58:26;;;;;;;;;;;;;;;;;;1041372;28;19964;-75
2024/03/29 00:58:56;;;;;;;;;;;;;;;;;;1036590;28;19945;-74
2024/03/29 00:59:26;;;;;;;;;;;;;;;;;;1042354;28;19913;-74
2024/03/29 00:59:56;;;;;;;;;;;;;;;;;;1041587;28;19908;-74
2024/03/29 01:00:26;;;;;;;;;;;;;;;;;;1042191;28;20287;-74
2024/03/29 01:00:57;;;;;;;;;;;;;;;;;;1046923;28;19908;-75
2024/03/29 01:01:27;;;;;;;;;;;;;;;;;;1046711;28;20291;-74
2024/03/29 01:01:57;;;;;;;;;;;;;;;;;;1046797;28;20533;-74
2024/03/29 01:02:28;;;;;;;;;;;;;;;;;;1046428;28;19912;-74
2024/03/29 01:02:58;;;;;;;;;;;;;;;;;;1042317;28;19913;-74
2024/03/29 01:03:31;;;;;;;;;;;;;;;;;;1041017;28;19952;-74
2024/03/29 01:04:01;;;;;;;;;;;;;;;;;;1042153;28;19935;-74
2024/03/29 01:04:31;;;;;;;;;;;;;;;;;;1042557;28;20003;-74
2024/03/29 01:05:02;;;;;;;;;;;;;;;;;;1046951;28;19915;-74
2024/03/29 01:05:33;;;;;;;;;;;;;;;;;;1045494;28;19963;-74
2024/03/29 01:06:03;;;;;;;;;;;;;;;;;;1046511;28;20007;-74
2024/03/29 01:06:33;;;;;;;;;;;;;;;;;;1046103;28;20411;-74
2024/03/29 01:07:03;;;;;;;;;;;;;;;;;;1046776;28;20027;-74
2024/03/29 01:07:34;;;;;;;;;;;;;;;;;;1046741;28;19908;-74
2024/03/29 01:08:04;;;;;;;;;;;;;;;;;;1045757;28;19912;-74
2024/03/29 01:08:34;;;;;;;;;;;;;;;;;;1046411;28;19909;-74
2024/03/29 01:09:05;;;;;;;;;;;;;;;;;;1046745;28;19909;-74
2024/03/29 01:09:35;;;;;;;;;;;;;;;;;;1046809;28;19908;-74
2024/03/29 01:10:05;;;;;;;;;;;;;;;;;;1047034;28;19908;-74
2024/03/29 01:10:35;;;;;;;;;;;;;;;;;;1046689;28;20008;-74
2024/03/29 01:11:06;;;;;;;;;;;;;;;;;;1046657;28;19939;-74
2024/03/29 01:11:36;;;;;;;;;;;;;;;;;;1040694;28;19915;-74
2024/03/29 01:12:06;;;;;;;;;;;;;;;;;;1041855;28;20062;-74
2024/03/29 01:12:36;;;;;;;;;;;;;;;;;;1042578;28;19908;-74
2024/03/29 01:13:06;;;;;;;;;;;;;;;;;;1042150;28;19908;-74
2024/03/29 01:13:37;;;;;;;;;;;;;;;;;;1040358;28;20316;-74
2024/03/29 01:14:07;;;;;;;;;;;;;;;;;;1042821;28;19909;-74
2024/03/29 01:14:37;;;;;;;;;;;;;;;;;;1042361;28;20535;-74
2024/03/29 01:15:07;;;;;;;;;;;;;;;;;;1046570;28;20283;-74
2024/03/29 01:15:38;;;;;;;;;;;;;;;;;;1046626;28;20291;-74
2024/03/29 01:16:08;;;;;;;;;;;;;;;;;;1046947;28;20318;-74
2024/03/29 01:16:38;;;;;;;;;;;;;;;;;;1044894;28;20406;-74
2024/03/29 01:17:08;;;;;;;;;;;;;;;;;;1046660;28;20390;-74
2024/03/29 01:17:38;;;;;;;;;;;;;;;;;;1043056;28;20255;-74
2024/03/29 01:18:10;;;;;;;;;;;;;;;;;;1040968;28;20287;-74
2024/03/29 01:18:43;;;;;;;;;;;;;;;;;;1041403;28;19982;-75
2024/03/29 01:19:13;;;;;;;;;;;;;;;;;;1039233;28;20015;-74
2024/03/29 01:19:43;;;;;;;;;;;;;;;;;;1040759;28;19942;-74
2024/03/29 01:20:14;;;;;;;;;;;;;;;;;;1045432;28;19909;-74
2024/03/29 01:20:44;;;;;;;;;;;;;;;;;;1043779;28;19959;-74
2024/03/29 01:21:14;;;;;;;;;;;;;;;;;;1039483;28;19909;-74
2024/03/29 01:21:44;;;;;;;;;;;;;;;;;;1040766;28;19909;-74
2024/03/29 01:22:15;;;;;;;;;;;;;;;;;;1039183;28;19909;-74
2024/03/29 01:22:45;;;;;;;;;;;;;;;;;;1041589;28;19920;-74
2024/03/29 01:23:15;;;;;;;;;;;;;;;;;;1040401;28;19913;-74
2024/03/29 01:23:45;;;;;;;;;;;;;;;;;;1042005;28;19916;-74
2024/03/29 01:24:15;;;;;;;;;;;;;;;;;;1041328;28;19908;-74
2024/03/29 01:24:46;;;;;;;;;;;;;;;;;;1037551;28;19956;-74
2024/03/29 01:25:17;;;;;;;;;;;;;;;;;;1045691;28;19909;-75
2024/03/29 01:25:47;;;;;;;;;;;;;;;;;;1044052;28;20268;-74
2024/03/29 01:26:17;;;;;;;;;;;;;;;;;;1038550;28;19917;-74
2024/03/29 01:26:48;;;;;;;;;;;;;;;;;;1036651;28;19918;-74
2024/03/29 01:27:18;;;;;;;;;;;;;;;;;;1037801;28;19917;-74
2024/03/29 01:27:48;;;;;;;;;;;;;;;;;;1037718;28;20301;-74
2024/03/29 01:28:18;;;;;;;;;;;;;;;;;;1036632;28;20656;-74
2024/03/29 01:28:49;;;;;;;;;;;;;;;;;;1042970;28;19913;-74
2024/03/29 01:29:19;;;;;;;;;;;;;;;;;;1043340;28;20439;-75
2024/03/29 01:29:49;;;;;;;;;;;;;;;;;;1046529;28;20485;-75
2024/03/29 01:30:19;;;;;;;;;;;;;;;;;;1043914;28;19908;-75
2024/03/29 01:30:49;;;;;;;;;;;;;;;;;;1038816;28;19916;-75
2024/03/29 01:31:20;;;;;;;;;;;;;;;;;;1038951;28;20687;-75
2024/03/29 01:31:50;;;;;;;;;;;;;;;;;;1037108;28;20320;-75
2024/03/29 01:32:20;;;;;;;;;;;;;;;;;;1038761;28;19909;-75
2024/03/29 01:32:50;;;;;;;;;;;;;;;;;;1043926;28;19934;-75
2024/03/29 01:33:21;;;;;;;;;;;;;;;;;;1045693;28;19915;-75
2024/03/29 01:33:51;;;;;;;;;;;;;;;;;;1040191;28;19913;-75
2024/03/29 01:34:21;;;;;;;;;;;;;;;;;;1040040;28;19948;-75
2024/03/29 01:34:51;;;;;;;;;;;;;;;;;;1038365;28;20323;-75
2024/03/29 01:35:22;;;;;;;;;;;;;;;;;;1036782;28;20458;-75
2024/03/29 01:35:52;;;;;;;;;;;;;;;;;;1041379;28;19920;-75
2024/03/29 01:36:23;;;;;;;;;;;;;;;;;;1038705;28;19966;-75
2024/03/29 01:36:56;;;;;;;;;;;;;;;;;;1035327;28;19917;-75
2024/03/29 01:37:30;;;;;;;;;;;;;;;;;;1033061;28;19989;-75
2024/03/29 01:38:00;;;;;;;;;;;;;;;;;;1035421;28;19957;-75
2024/03/29 01:38:31;;;;;;;;;;;;;;;;;;1037773;28;19914;-75
2024/03/29 01:39:01;;;;;;;;;;;;;;;;;;1047979;23;19917;-75
2024/03/29 01:39:32;;;;;;;;;;;;;;;;;;1044382;28;20395;-75
2024/03/29 01:40:02;;;;;;;;;;;;;;;;;;1045034;28;20326;-75
2024/03/29 01:40:32;;;;;;;;;;;;;;;;;;1042824;28;19915;-75
2024/03/29 01:41:02;;;;;;;;;;;;;;;;;;1041566;28;19931;-75
2024/03/29 01:41:33;;;;;;;;;;;;;;;;;;1041595;28;19909;-75
2024/03/29 01:42:03;;;;;;;;;;;;;;;;;;1042519;28;19912;-75
2024/03/29 01:42:33;;;;;;;;;;;;;;;;;;1040296;28;19932;-75
2024/03/29 01:43:03;;;;;;;;;;;;;;;;;;1038911;28;19909;-75
2024/03/29 01:43:34;;;;;;;;;;;;;;;;;;1040636;28;19919;-75
2024/03/29 01:44:04;;;;;;;;;;;;;;;;;;1043089;28;19909;-75
2024/03/29 01:44:34;;;;;;;;;;;;;;;;;;1042703;28;19920;-75
2024/03/29 01:45:04;;;;;;;;;;;;;;;;;;1041165;28;20187;-75
2024/03/29 01:45:34;;;;;;;;;;;;;;;;;;1044446;28;19919;-75
2024/03/29 01:46:07;;;;;;;;;;;;;;;;;;1041662;28;19948;-75
2024/03/29 01:46:38;;;;;;;;;;;;;;;;;;1044161;28;20249;-75
2024/03/29 01:47:08;;;;;;;;;;;;;;;;;;1042728;28;19916;-75
2024/03/29 01:47:38;;;;;;;;;;;;;;;;;;1043176;28;19908;-75
2024/03/29 01:48:09;;;;;;;;;;;;;;;;;;1041495;28;19909;-75
2024/03/29 01:48:39;;;;;;;;;;;;;;;;;;1043767;28;20354;-75
2024/03/29 01:49:09;;;;;;;;;;;;;;;;;;1040487;28;20393;-75
2024/03/29 01:49:39;;;;;;;;;;;;;;;;;;1039296;28;20379;-75
2024/03/29 01:50:09;;;;;;;;;;;;;;;;;;1042541;28;19965;-75
2024/03/29 01:50:40;;;;;;;;;;;;;;;;;;1041595;28;19912;-75
2024/03/29 01:51:10;;;;;;;;;;;;;;;;;;1039793;28;20281;-75
2024/03/29 01:51:40;;;;;;;;;;;;;;;;;;1041859;28;20053;-75
2024/03/29 01:52:11;;;;;;;;;;;;;;;;;;1037360;28;19913;-75
2024/03/29 01:52:42;;;;;;;;;;;;;;;;;;1038381;28;19914;-75
2024/03/29 01:53:12;;;;;;;;;;;;;;;;;;1040749;28;19912;-75
2024/03/29 01:53:42;;;;;;;;;;;;;;;;;;1042784;28;20078;-75
2024/03/29 01:54:13;;;;;;;;;;;;;;;;;;1042662;28;20352;-75
2024/03/29 01:54:43;;;;;;;;;;;;;;;;;;1044178;28;20019;-75
2024/03/29 01:55:13;;;;;;;;;;;;;;;;;;1043351;28;19920;-75
2024/03/29 01:55:43;;;;;;;;;;;;;;;;;;1043643;28;19908;-75
2024/03/29 01:56:14;;;;;;;;;;;;;;;;;;1043737;28;20384;-75
2024/03/29 01:56:44;;;;;;;;;;;;;;;;;;1039959;28;20490;-75
2024/03/29 01:57:14;;;;;;;;;;;;;;;;;;1039669;28;19917;-75
2024/03/29 01:57:44;;;;;;;;;;;;;;;;;;1042214;28;20010;-75
2024/03/29 01:58:15;;;;;;;;;;;;;;;;;;1037934;28;19923;-75
2024/03/29 01:58:45;;;;;;;;;;;;;;;;;;1040734;28;20392;-75
2024/03/29 01:59:15;;;;;;;;;;;;;;;;;;1038551;28;20489;-75
2024/03/29 01:59:45;;;;;;;;;;;;;;;;;;1039782;28;20392;-75
2024/03/29 02:00:16;;;;;;;;;;;;;;;;;;1035680;28;19963;-75
2024/03/29 02:00:46;;;;;;;;;;;;;;;;;;1036509;28;19941;-75
2024/03/29 02:01:16;;;;;;;;;;;;;;;;;;1039466;28;20411;-75
2024/03/29 02:01:47;;;;;;;;;;;;;;;;;;1039226;28;20646;-75
2024/03/29 02:02:17;;;;;;;;;;;;;;;;;;1041411;28;20003;-75
2024/03/29 02:02:47;;;;;;;;;;;;;;;;;;1036975;28;20292;-75
2024/03/29 02:03:17;;;;;;;;;;;;;;;;;;1038135;28;20443;-75
2024/03/29 02:03:48;;;;;;;;;;;;;;;;;;1036781;28;20462;-75
2024/03/29 02:04:18;;;;;;;;;;;;;;;;;;1041188;28;20368;-75
2024/03/29 02:04:48;;;;;;;;;;;;;;;;;;1041805;28;20530;-76
2024/03/29 02:05:18;;;;;;;;;;;;;;;;;;1036733;28;20356;-74
2024/03/29 02:05:48;;;;;;;;;;;;;;;;;;1041359;28;19913;-74
2024/03/29 02:06:19;;;;;;;;;;;;;;;;;;1039850;28;20819;-74
2024/03/29 02:06:49;;;;;;;;;;;;;;;;;;1042066;28;20001;-74
2024/03/29 02:07:19;;;;;;;;;;;;;;;;;;1041837;28;19999;-74
2024/03/29 02:07:49;;;;;;;;;;;;;;;;;;1044102;28;19915;-74
2024/03/29 02:08:20;;;;;;;;;;;;;;;;;;1041731;28;19917;-74
2024/03/29 02:08:50;;;;;;;;;;;;;;;;;;1043341;28;20238;-74
2024/03/29 02:09:20;;;;;;;;;;;;;;;;;;1039534;28;20245;-74
2024/03/29 02:09:50;;;;;;;;;;;;;;;;;;1042334;28;20257;-74
2024/03/29 02:10:20;;;;;;;;;;;;;;;;;;1039415;28;19971;-74
2024/03/29 02:10:51;;;;;;;;;;;;;;;;;;1036303;28;19913;-74
2024/03/29 02:11:21;;;;;;;;;;;;;;;;;;1038863;28;19940;-74
2024/03/29 02:11:51;;;;;;;;;;;;;;;;;;1038823;28;19909;-74
2024/03/29 02:12:22;;;;;;;;;;;;;;;;;;1038033;28;20805;-74
2024/03/29 02:12:52;;;;;;;;;;;;;;;;;;1042003;28;19912;-74
2024/03/29 02:13:22;;;;;;;;;;;;;;;;;;1042545;28;19942;-74
2024/03/29 02:13:52;;;;;;;;;;;;;;;;;;1043628;28;19932;-74
2024/03/29 02:14:22;;;;;;;;;;;;;;;;;;1041851;28;19960;-74
2024/03/29 02:14:53;;;;;;;;;;;;;;;;;;1039851;28;19923;-74
2024/03/29 02:15:23;;;;;;;;;;;;;;;;;;1040256;28;19971;-74
2024/03/29 02:15:53;;;;;;;;;;;;;;;;;;1037679;28;19909;-74
2024/03/29 02:16:23;;;;;;;;;;;;;;;;;;1034316;28;19917;-74
2024/03/29 02:16:54;;;;;;;;;;;;;;;;;;1031234;28;19917;-74
2024/03/29 02:17:24;;;;;;;;;;;;;;;;;;1032473;28;19977;-74
2024/03/29 02:17:54;;;;;;;;;;;;;;;;;;1036884;28;19913;-74
2024/03/29 02:18:24;;;;;;;;;;;;;;;;;;1036796;28;20068;-74
2024/03/29 02:18:55;;;;;;;;;;;;;;;;;;1039641;28;20003;-74
2024/03/29 02:19:25;;;;;;;;;;;;;;;;;;1041679;28;20364;-74
2024/03/29 02:19:55;;;;;;;;;;;;;;;;;;1043329;28;19908;-74
2024/03/29 02:20:25;;;;;;;;;;;;;;;;;;1038327;28;19912;-74
2024/03/29 02:20:56;;;;;;;;;;;;;;;;;;1041235;28;19912;-74
2024/03/29 02:21:26;;;;;;;;;;;;;;;;;;1041640;28;19917;-74
2024/03/29 02:21:56;;;;;;;;;;;;;;;;;;1042497;28;19992;-74
2024/03/29 02:22:26;;;;;;;;;;;;;;;;;;1041205;28;19909;-74
2024/03/29 02:22:57;;;;;;;;;;;;;;;;;;1043950;28;19961;-74
2024/03/29 02:23:27;;;;;;;;;;;;;;;;;;1043738;28;19913;-74
2024/03/29 02:23:58;;;;;;;;;;;;;;;;;;1041706;28;20400;-74
2024/03/29 02:24:28;;;;;;;;;;;;;;;;;;1040112;28;19908;-73
2024/03/29 02:24:58;;;;;;;;;;;;;;;;;;1043304;28;20316;-74
2024/03/29 02:25:28;;;;;;;;;;;;;;;;;;1041328;28;20007;-74
2024/03/29 02:25:59;;;;;;;;;;;;;;;;;;1043702;28;19908;-74
2024/03/29 02:26:32;;;;;;;;;;;;;;;;;;1039232;28;19913;-74
2024/03/29 02:27:03;;;;;;;;;;;;;;;;;;1042495;28;19909;-75
2024/03/29 02:27:33;;;;;;;;;;;;;;;;;;1041283;28;19940;-74
2024/03/29 02:28:03;;;;;;;;;;;;;;;;;;1039948;28;19908;-74
2024/03/29 02:28:33;;;;;;;;;;;;;;;;;;1036331;28;19920;-74
2024/03/29 02:29:03;;;;;;;;;;;;;;;;;;1036784;28;20412;-74
2024/03/29 02:29:34;;;;;;;;;;;;;;;;;;1033719;28;20321;-74
2024/03/29 02:30:04;;;;;;;;;;;;;;;;;;1037970;28;19913;-74
2024/03/29 02:30:34;;;;;;;;;;;;;;;;;;1040627;28;19952;-76
2024/03/29 02:31:04;;;;;;;;;;;;;;;;;;1039470;28;20049;-74
2024/03/29 02:31:34;;;;;;;;;;;;;;;;;;1040061;28;19912;-74
2024/03/29 02:32:05;;;;;;;;;;;;;;;;;;1039082;28;19935;-75
2024/03/29 02:32:35;;;;;;;;;;;;;;;;;;1040517;28;19913;-75
2024/03/29 02:33:05;;;;;;;;;;;;;;;;;;1041332;28;19913;-74
2024/03/29 02:33:35;;;;;;;;;;;;;;;;;;1035490;28;19925;-74
2024/03/29 02:34:10;;;;;;;;;;;;;;;;;;1040678;28;20255;-75
2024/03/29 02:34:41;;;;;;;;;;;;;;;;;;1040164;28;19908;-75
2024/03/29 02:35:11;;;;;;;;;;;;;;;;;;1037998;28;19941;-75
2024/03/29 02:35:41;;;;;;;;;;;;;;;;;;1037826;28;20004;-75
2024/03/29 02:36:13;;;;;;;;;;;;;;;;;;1038466;28;19909;-75
2024/03/29 02:36:44;;;;;;;;;;;;;;;;;;1039599;28;20373;-75
2024/03/29 02:37:15;;;;;;;;;;;;;;;;;;1037404;28;20401;-75
2024/03/29 02:37:45;;;;;;;;;;;;;;;;;;1040391;28;19959;-75
2024/03/29 02:38:15;;;;;;;;;;;;;;;;;;1038646;28;20031;-75
2024/03/29 02:38:45;;;;;;;;;;;;;;;;;;1041623;28;20013;-75
2024/03/29 02:39:15;;;;;;;;;;;;;;;;;;1037117;28;19929;-75
2024/03/29 02:39:46;;;;;;;;;;;;;;;;;;1034597;28;19909;-75
2024/03/29 02:40:16;;;;;;;;;;;;;;;;;;1034805;28;19952;-74
2024/03/29 02:40:47;;;;;;;;;;;;;;;;;;1037386;28;19960;-74
2024/03/29 02:41:17;;;;;;;;;;;;;;;;;;1035819;28;20008;-74
2024/03/29 02:41:47;;;;;;;;;;;;;;;;;;1036133;28;19913;-74
2024/03/29 02:42:18;;;;;;;;;;;;;;;;;;1041888;28;20411;-75
2024/03/29 02:42:48;;;;;;;;;;;;;;;;;;1037787;28;19933;-75
2024/03/29 02:43:18;;;;;;;;;;;;;;;;;;1034835;28;20443;-75
2024/03/29 02:43:49;;;;;;;;;;;;;;;;;;1039328;28;19913;-75
2024/03/29 02:44:19;;;;;;;;;;;;;;;;;;1037907;28;19913;-75
2024/03/29 02:44:49;;;;;;;;;;;;;;;;;;1036085;28;20344;-75
2024/03/29 02:45:19;;;;;;;;;;;;;;;;;;1036133;28;20308;-74
2024/03/29 02:45:50;;;;;;;;;;;;;;;;;;1036377;28;19916;-75
2024/03/29 02:46:20;;;;;;;;;;;;;;;;;;1033512;28;20020;-76
2024/03/29 02:46:50;;;;;;;;;;;;;;;;;;1036305;28;19913;-77
2024/03/29 02:47:21;;;;;;;;;;;;;;;;;;1035553;28;19909;-76
2024/03/29 02:47:51;;;;;;;;;;;;;;;;;;1038789;28;19943;-74
2024/03/29 02:48:21;;;;;;;;;;;;;;;;;;1040172;28;19984;-74
2024/03/29 02:48:52;;;;;;;;;;;;;;;;;;1041667;28;19920;-76
2024/03/29 02:49:22;;;;;;;;;;;;;;;;;;1040165;28;19911;-76
2024/03/29 02:49:52;;;;;;;;;;;;;;;;;;1038213;28;20011;-76
2024/03/29 02:50:22;;;;;;;;;;;;;;;;;;1037982;28;20417;-76
2024/03/29 02:50:53;;;;;;;;;;;;;;;;;;1037077;28;20684;-74
2024/03/29 02:51:23;;;;;;;;;;;;;;;;;;1039201;28;19935;-75
2024/03/29 02:51:54;;;;;;;;;;;;;;;;;;1041996;28;20340;-74
2024/03/29 02:52:25;;;;;;;;;;;;;;;;;;1036536;28;20051;-75
2024/03/29 02:52:55;;;;;;;;;;;;;;;;;;1037706;28;20350;-75
2024/03/29 02:53:25;;;;;;;;;;;;;;;;;;1040207;28;19916;-75
2024/03/29 02:53:55;;;;;;;;;;;;;;;;;;1038627;28;20008;-75
2024/03/29 02:54:26;;;;;;;;;;;;;;;;;;1037877;28;20375;-75
2024/03/29 02:54:56;;;;;;;;;;;;;;;;;;1040668;28;20421;-75
2024/03/29 02:55:26;;;;;;;;;;;;;;;;;;1033206;28;20325;-75
2024/03/29 02:55:56;;;;;;;;;;;;;;;;;;1036930;28;19976;-75
2024/03/29 02:56:27;;;;;;;;;;;;;;;;;;1037248;28;19913;-75
2024/03/29 02:56:57;;;;;;;;;;;;;;;;;;1033528;28;20024;-75
2024/03/29 02:57:27;;;;;;;;;;;;;;;;;;1037147;28;19963;-75
2024/03/29 02:57:58;;;;;;;;;;;;;;;;;;1035545;28;20454;-75
2024/03/29 02:58:28;;;;;;;;;;;;;;;;;;1031194;28;19917;-75
2024/03/29 02:58:58;;;;;;;;;;;;;;;;;;1032658;28;21375;-75
2024/03/29 02:59:29;;;;;;;;;;;;;;;;;;1034580;28;20596;-75
2024/03/29 02:59:59;;;;;;;;;;;;;;;;;;1034605;28;20047;-75
2024/03/29 03:00:29;;;;;;;;;;;;;;;;;;1035224;28;19913;-75
2024/03/29 03:00:59;;;;;;;;;;;;;;;;;;1036738;28;20297;-75
2024/03/29 03:01:30;;;;;;;;;;;;;;;;;;1030947;28;20475;-75
2024/03/29 03:02:00;;;;;;;;;;;;;;;;;;1034176;28;20000;-75
2024/03/29 03:02:30;;;;;;;;;;;;;;;;;;1039161;28;20429;-77
2024/03/29 03:03:00;;;;;;;;;;;;;;;;;;1041170;28;19932;-75
2024/03/29 03:03:31;;;;;;;;;;;;;;;;;;1036991;28;20031;-75
2024/03/29 03:04:01;;;;;;;;;;;;;;;;;;1035525;28;19920;-75
2024/03/29 03:04:31;;;;;;;;;;;;;;;;;;1036157;28;20324;-75
2024/03/29 03:05:02;;;;;;;;;;;;;;;;;;1028628;28;20431;-75
2024/03/29 03:05:32;;;;;;;;;;;;;;;;;;1037005;28;19984;-75
2024/03/29 03:06:02;;;;;;;;;;;;;;;;;;1033880;28;19917;-75
2024/03/29 03:06:33;;;;;;;;;;;;;;;;;;1028256;28;19918;-74
2024/03/29 03:11:08;;;;;;;;;;;;;;;;;;1039120;28;20371;-76
2024/03/29 03:11:38;;;;;;;;;;;;;;;;;;1035768;28;19917;-76
2024/03/29 03:12:08;;;;;;;;;;;;;;;;;;1036132;28;19909;-78
2024/03/29 03:12:38;;;;;;;;;;;;;;;;;;1033467;28;19913;-77
2024/03/29 03:13:09;;;;;;;;;;;;;;;;;;1039458;28;19908;-77
2024/03/29 03:13:39;;;;;;;;;;;;;;;;;;1038443;28;19913;-76
2024/03/29 03:14:09;;;;;;;;;;;;;;;;;;1036902;28;20447;-75
2024/03/29 03:14:39;;;;;;;;;;;;;;;;;;1037457;28;19909;-76
2024/03/29 03:15:10;;;;;;;;;;;;;;;;;;1035976;28;19913;-77
2024/03/29 03:15:40;;;;;;;;;;;;;;;;;;1037183;28;19917;-77
2024/03/29 03:16:10;;;;;;;;;;;;;;;;;;1035844;28;19964;-77
2024/03/29 03:16:41;;;;;;;;;;;;;;;;;;1038037;28;19916;-76
2024/03/29 03:17:21;;;;;;;;;;;;;;;;;;1038892;28;19924;-77
2024/03/29 03:17:51;;;;;;;;;;;;;;;;;;1040641;28;20502;-76
2024/03/29 03:18:21;;;;;;;;;;;;;;;;;;1036181;28;20087;-76
2024/03/29 03:18:53;;;;;;;;;;;;;;;;;;1036991;28;20759;-77
2024/03/29 03:19:23;;;;;;;;;;;;;;;;;;1035177;28;20495;-76
2024/03/29 03:19:53;;;;;;;;;;;;;;;;;;1036164;28;19909;-77
2024/03/29 03:20:27;;;;;;;;;;;;;;;;;;1037593;28;20418;-77
2024/03/29 03:20:58;;;;;;;;;;;;;;;;;;1041878;28;19915;-77
2024/03/29 03:21:28;;;;;;;;;;;;;;;;;;1041276;28;19916;-78
2024/03/29 03:21:59;;;;;;;;;;;;;;;;;;1040076;28;20219;-76
2024/03/29 03:22:29;;;;;;;;;;;;;;;;;;1035351;28;19913;-77
2024/03/29 03:22:59;;;;;;;;;;;;;;;;;;1035773;28;19909;-76
2024/03/29 03:23:30;;;;;;;;;;;;;;;;;;1032982;28;19913;-74
2024/03/29 03:24:00;;;;;;;;;;;;;;;;;;1035595;28;19916;-75
2024/03/29 03:24:30;;;;;;;;;;;;;;;;;;1038049;28;19951;-76
2024/03/29 03:25:00;;;;;;;;;;;;;;;;;;1040334;28;19919;-76
2024/03/29 03:25:31;;;;;;;;;;;;;;;;;;1037887;28;19915;-76
2024/03/29 03:26:03;;;;;;;;;;;;;;;;;;1037602;28;20445;-77
2024/03/29 03:26:33;;;;;;;;;;;;;;;;;;1032379;28;19929;-74
2024/03/29 03:27:04;;;;;;;;;;;;;;;;;;1037149;28;19917;-74
2024/03/29 03:27:34;;;;;;;;;;;;;;;;;;1038846;28;19920;-75
2024/03/29 03:28:04;;;;;;;;;;;;;;;;;;1038743;28;19920;-75
2024/03/29 03:28:35;;;;;;;;;;;;;;;;;;1038465;28;19913;-76
2024/03/29 03:29:07;;;;;;;;;;;;;;;;;;1035311;28;19944;-75
2024/03/29 03:29:38;;;;;;;;;;;;;;;;;;1036859;28;19951;-77
2024/03/29 03:30:08;;;;;;;;;;;;;;;;;;1033920;28;20071;-75
2024/03/29 03:30:38;;;;;;;;;;;;;;;;;;1034294;28;19921;-78
2024/03/29 03:31:09;;;;;;;;;;;;;;;;;;1034547;28;19909;-76
2024/03/29 03:31:39;;;;;;;;;;;;;;;;;;1029243;28;23292;-76